createdAt,value
2023-02-18T05:00:54.777Z,24.06
2023-02-18T05:03:22.153Z,24.01
2023-02-18T05:05:48.782Z,23.96
2023-02-18T05:08:16.972Z,23.87
2023-02-18T05:10:45.127Z,24.00
2023-02-18T05:13:11.789Z,23.87
2023-02-18T05:15:38.585Z,23.94
2023-02-18T05:18:05.928Z,24.04
2023-02-18T05:20:35.127Z,24.01
2023-02-18T05:23:02.038Z,23.57
2023-02-18T05:25:29.097Z,23.54
2023-02-18T05:27:56.433Z,23.77
2023-02-18T05:30:23.582Z,23.55
2023-02-18T05:32:51.144Z,24.07
2023-02-18T05:35:17.794Z,23.99
2023-02-18T05:37:44.852Z,24.15
2023-02-18T05:40:12.106Z,24.11
2023-02-18T05:42:41.062Z,24.08
2023-02-18T05:45:08.391Z,24.14
2023-02-18T05:47:35.193Z,23.78
2023-02-18T05:50:02.519Z,24.06
2023-02-18T05:52:30.398Z,24.09
2023-02-18T05:54:57.601Z,24.00
2023-02-18T05:57:28.760Z,23.68
2023-02-18T05:59:58.702Z,22.49
2023-02-18T06:02:26.590Z,22.48
2023-02-18T06:04:54.350Z,22.99
2023-02-18T06:07:21.279Z,22.90
2023-02-18T06:09:48.298Z,23.22
2023-02-18T06:12:17.105Z,22.97
2023-02-18T06:14:44.192Z,23.18
2023-02-18T06:17:12.649Z,23.37
2023-02-18T06:19:41.565Z,23.46
2023-02-18T06:22:08.263Z,23.71
2023-02-18T06:24:36.383Z,23.59
2023-02-18T06:27:03.474Z,23.82
2023-02-18T06:29:33.600Z,23.89
2023-02-18T06:32:00.363Z,23.76
2023-02-18T06:34:29.093Z,23.48
2023-02-18T06:36:56.356Z,23.43
2023-02-18T06:39:23.998Z,23.68
2023-02-18T06:41:51.068Z,23.60
2023-02-18T06:44:17.750Z,24.04
2023-02-18T06:46:45.106Z,23.86
2023-02-18T06:49:13.107Z,23.65
2023-02-18T06:51:41.013Z,23.66
2023-02-18T06:54:07.800Z,23.92
2023-02-18T06:56:36.027Z,23.41
2023-02-18T06:59:04.136Z,23.85
2023-02-18T07:01:32.949Z,23.86
2023-02-18T07:04:00.982Z,23.47
2023-02-18T07:06:28.200Z,24.10
2023-02-18T07:08:55.586Z,23.83
2023-02-18T07:11:23.592Z,23.81
2023-02-18T07:13:51.522Z,23.77
2023-02-18T07:16:20.873Z,23.49
2023-02-18T07:18:49.089Z,24.00
2023-02-18T07:21:15.827Z,23.98
2023-02-18T07:23:44.130Z,24.12
2023-02-18T07:26:11.989Z,24.01
2023-02-18T07:28:39.625Z,23.80
2023-02-18T07:31:06.348Z,24.04
2023-02-18T07:33:33.573Z,23.87
2023-02-18T07:36:01.019Z,23.75
2023-02-18T07:38:28.621Z,23.85
2023-02-18T07:40:56.827Z,24.03
2023-02-18T07:43:26.095Z,23.87
2023-02-18T07:45:54.107Z,24.04
2023-02-18T07:48:21.248Z,23.38
2023-02-18T07:50:48.018Z,24.11
2023-02-18T07:53:16.536Z,24.06
2023-02-18T07:55:49.483Z,24.01
2023-02-18T07:58:16.097Z,24.17
2023-02-18T08:00:47.556Z,23.84
2023-02-18T08:03:15.890Z,23.80
2023-02-18T08:05:43.178Z,23.96
2023-02-18T08:08:13.724Z,23.86
2023-02-18T08:10:40.385Z,24.07
2023-02-18T08:13:09.342Z,23.95
2023-02-18T08:15:37.014Z,24.04
2023-02-18T08:18:07.291Z,24.08
2023-02-18T08:20:38.605Z,24.04
2023-02-18T08:23:07.766Z,24.02
2023-02-18T08:25:35.040Z,23.66
2023-02-18T08:28:01.797Z,23.82
2023-02-18T08:30:28.717Z,24.13
2023-02-18T08:32:55.600Z,24.00
2023-02-18T08:35:23.827Z,24.00
2023-02-18T08:37:52.260Z,24.15
2023-02-18T08:40:21.037Z,23.94
2023-02-18T08:42:48.701Z,24.05
2023-02-18T08:45:15.693Z,23.76
2023-02-18T08:48:16.885Z,24.11
2023-02-18T08:50:29.567Z,24.00
2023-02-18T08:52:57.358Z,23.95
2023-02-18T08:55:26.720Z,24.13
2023-02-18T08:57:53.760Z,23.52
2023-02-18T09:00:20.620Z,24.24
2023-02-18T09:02:49.011Z,23.91
2023-02-18T09:05:17.073Z,24.21
2023-02-18T09:07:44.058Z,24.03
2023-02-18T09:10:11.982Z,24.18
2023-02-18T09:12:38.653Z,23.76
2023-02-18T09:15:06.585Z,24.19
2023-02-18T09:17:33.413Z,23.98
2023-02-18T09:20:00.907Z,24.04
2023-02-18T09:22:28.726Z,23.70
2023-02-18T09:24:56.173Z,24.12
2023-02-18T09:27:24.532Z,24.19
2023-02-18T09:29:52.030Z,24.19
2023-02-18T09:32:32.603Z,24.18
2023-02-18T09:35:03.730Z,23.88
2023-02-18T09:37:30.510Z,24.21
2023-02-18T09:40:00.144Z,23.89
2023-02-18T09:42:32.548Z,23.84
2023-02-18T09:45:02.139Z,23.93
2023-02-18T09:47:33.687Z,24.15
2023-02-18T09:50:23.958Z,24.26
2023-02-18T09:52:50.773Z,23.83
2023-02-18T09:55:25.023Z,24.31
2023-02-18T09:58:03.831Z,24.17
2023-02-18T10:00:34.620Z,24.07
2023-02-18T10:03:06.562Z,24.25
2023-02-18T10:05:34.736Z,24.11
2023-02-18T10:08:28.861Z,24.25
2023-02-18T10:10:55.673Z,24.00
2023-02-18T10:13:45.786Z,24.25
2023-02-18T10:16:18.071Z,24.19
2023-02-18T10:18:49.398Z,24.32
2023-02-18T10:21:21.184Z,23.60
2023-02-18T10:24:12.912Z,24.35
2023-02-18T10:26:40.480Z,24.22
2023-02-18T10:29:15.684Z,24.26
2023-02-18T10:31:50.489Z,24.11
2023-02-18T10:34:23.275Z,24.40
2023-02-18T10:36:52.912Z,23.75
2023-02-18T10:39:44.649Z,24.18
2023-02-18T10:42:36.407Z,24.39
2023-02-18T10:45:22.171Z,24.40
2023-02-18T10:48:13.860Z,24.38
2023-02-18T10:50:42.538Z,24.09
2023-02-18T10:53:18.052Z,24.41
2023-02-18T10:55:49.238Z,24.17
2023-02-18T10:58:43.111Z,24.55
2023-02-18T11:01:19.354Z,24.44
2023-02-18T11:03:51.973Z,24.01
2023-02-18T11:06:33.090Z,24.08
2023-02-18T11:09:00.855Z,24.48
2023-02-18T11:11:35.403Z,24.59
2023-02-18T11:14:04.910Z,24.46
2023-02-18T11:16:43.632Z,24.53
2023-02-18T11:19:34.463Z,24.59
2023-02-18T11:22:29.148Z,24.00
2023-02-18T11:24:57.730Z,24.39
2023-02-18T11:27:25.895Z,23.90
2023-02-18T11:29:54.485Z,24.39
2023-02-18T11:32:22.185Z,24.52
2023-02-18T11:34:51.385Z,24.25
2023-02-18T11:37:20.621Z,24.06
2023-02-18T11:39:53.751Z,24.39
2023-02-18T11:42:23.008Z,24.62
2023-02-18T11:44:58.598Z,24.46
2023-02-18T11:47:30.497Z,24.22
2023-02-18T11:50:10.296Z,24.16
2023-02-18T11:52:50.067Z,24.40
2023-02-18T11:55:27.393Z,24.56
2023-02-18T12:13:27.719Z,24.58
2023-02-18T12:16:16.540Z,24.58
2023-02-18T12:19:04.664Z,24.65
2023-02-18T12:22:29.451Z,24.71
2023-02-18T12:25:16.968Z,24.78
2023-02-18T12:28:28.996Z,24.53
2023-02-18T12:31:58.419Z,24.97
2023-02-18T12:35:34.938Z,25.08
2023-02-18T12:43:17.698Z,25.27
2023-02-18T12:49:00.635Z,24.61
2023-02-18T12:55:43.662Z,25.00
2023-02-18T12:58:26.018Z,24.93
2023-02-18T13:01:10.697Z,24.78
2023-02-18T13:03:47.212Z,25.09
2023-02-18T13:10:52.476Z,25.23
2023-02-18T13:13:54.798Z,25.31
2023-02-18T13:16:21.726Z,25.26
2023-02-18T13:18:59.542Z,25.17
2023-02-18T13:21:26.651Z,25.35
2023-02-18T13:24:00.319Z,25.08
2023-02-18T13:26:27.937Z,25.38
2023-02-18T13:29:28.637Z,25.51
2023-02-18T13:32:20.986Z,25.10
2023-02-18T13:35:00.942Z,25.49
2023-02-18T13:37:45.545Z,25.49
2023-02-18T13:40:52.362Z,25.20
2023-02-18T13:43:30.922Z,25.46
2023-02-18T13:49:33.747Z,25.19
2023-02-18T13:52:01.927Z,25.13
2023-02-18T13:54:30.294Z,25.12
2023-02-18T13:57:27.151Z,25.42
2023-02-18T14:00:02.768Z,25.00
2023-02-18T14:02:36.277Z,25.16
2023-02-18T14:05:03.325Z,25.37
2023-02-18T14:07:36.480Z,25.37
2023-02-18T14:10:32.253Z,25.38
2023-02-18T14:13:27.640Z,25.38
2023-02-18T14:16:32.867Z,24.93
2023-02-18T14:19:53.279Z,24.89
2023-02-18T14:22:38.645Z,25.28
2023-02-18T14:26:05.147Z,25.31
2023-02-18T14:28:34.055Z,25.30
2023-02-18T14:31:14.093Z,24.84
2023-02-18T14:34:00.956Z,24.89
2023-02-18T14:36:46.389Z,25.29
2023-02-18T14:39:19.743Z,25.26
2023-02-18T14:42:08.018Z,25.24
2023-02-18T14:44:54.240Z,25.25
2023-02-18T14:47:41.520Z,25.18
2023-02-18T14:50:31.119Z,25.20
2023-02-18T14:52:58.225Z,24.96
2023-02-18T14:55:30.551Z,25.19
2023-02-18T14:58:22.954Z,25.03
2023-02-18T15:00:49.826Z,25.10
2023-02-18T15:03:22.335Z,25.06
2023-02-18T15:05:54.768Z,24.95
2023-02-18T15:08:23.769Z,24.78
2023-02-18T15:10:59.665Z,25.13
2023-02-18T15:13:37.346Z,25.16
2023-02-18T15:16:07.999Z,25.17
2023-02-18T15:18:43.627Z,25.04
2023-02-18T15:21:37.447Z,25.05
2023-02-18T15:24:06.540Z,25.12
2023-02-18T15:26:33.925Z,24.96
2023-02-18T15:29:03.765Z,25.06
2023-02-18T15:31:32.376Z,25.03
2023-02-18T15:33:59.358Z,24.98
2023-02-18T15:36:27.657Z,25.09
2023-02-18T15:38:56.798Z,24.99
2023-02-18T15:41:23.594Z,25.08
2023-02-18T15:44:04.644Z,25.10
2023-02-18T15:46:31.990Z,25.05
2023-02-18T15:48:59.851Z,24.93
2023-02-18T15:51:29.665Z,24.98
2023-02-18T15:53:59.589Z,25.02
2023-02-18T15:56:46.962Z,24.82
2023-02-18T15:59:22.082Z,24.88
2023-02-18T16:01:56.647Z,24.88
2023-02-18T16:04:24.705Z,24.91
2023-02-18T16:06:53.632Z,24.74
2023-02-18T16:09:26.914Z,24.90
2023-02-18T16:11:59.697Z,24.90
2023-02-18T16:14:47.640Z,24.91
2023-02-18T16:17:34.339Z,24.55
2023-02-18T16:20:16.558Z,24.49
2023-02-18T16:22:45.426Z,24.45
2023-02-18T16:25:25.910Z,24.41
2023-02-18T16:27:58.124Z,24.54
2023-02-18T16:30:29.916Z,24.16
2023-02-18T16:32:58.320Z,24.55
2023-02-18T16:35:27.813Z,24.29
2023-02-18T16:37:57.738Z,24.66
2023-02-18T16:40:35.579Z,24.71
2023-02-18T16:43:15.770Z,24.73
2023-02-18T16:45:44.160Z,24.64
2023-02-18T16:48:35.635Z,24.82
2023-02-18T16:51:11.412Z,24.72
2023-02-18T16:53:38.386Z,24.66
2023-02-18T16:56:10.780Z,24.64
2023-02-18T16:58:38.278Z,24.68
2023-02-18T17:01:05.675Z,24.54
2023-02-18T17:03:32.535Z,24.63
2023-02-18T17:05:59.363Z,24.70
2023-02-18T17:08:27.628Z,24.72
2023-02-18T17:10:57.312Z,24.74
2023-02-18T17:13:26.486Z,24.54
2023-02-18T17:15:54.403Z,24.39
2023-02-18T17:18:21.856Z,24.70
2023-02-18T17:20:49.073Z,24.85
2023-02-18T17:23:16.490Z,24.52
2023-02-18T17:25:43.389Z,24.66
2023-02-18T17:28:10.232Z,24.70
2023-02-18T17:30:40.461Z,24.61
2023-02-18T17:33:08.004Z,24.63
2023-02-18T17:35:34.932Z,24.92
2023-02-18T17:38:01.808Z,24.56
2023-02-18T17:40:28.684Z,24.90
2023-02-18T17:42:55.868Z,24.65
2023-02-18T17:45:33.384Z,24.89
2023-02-18T17:48:00.728Z,24.81
2023-02-18T17:50:28.042Z,24.57
2023-02-18T17:52:55.526Z,24.70
2023-02-18T17:55:30.296Z,24.89
2023-02-18T17:57:58.996Z,24.88
2023-02-18T18:00:34.552Z,24.60
2023-02-18T18:03:01.583Z,24.68
2023-02-18T18:05:30.563Z,24.49
2023-02-18T18:07:57.661Z,24.76
2023-02-18T18:10:28.622Z,24.90
2023-02-18T18:12:56.202Z,24.80
2023-02-18T18:15:27.285Z,25.01
2023-02-18T18:17:54.723Z,24.96
2023-02-18T18:20:23.314Z,24.87
2023-02-18T18:22:51.650Z,25.12
2023-02-18T18:25:27.102Z,25.19
2023-02-18T18:27:54.198Z,24.99
2023-02-18T18:30:31.166Z,25.06
2023-02-18T18:32:58.226Z,24.98
2023-02-18T18:35:32.210Z,25.14
2023-02-18T18:37:59.291Z,24.78
2023-02-18T18:40:28.286Z,25.09
2023-02-18T18:42:55.863Z,25.11
2023-02-18T18:45:33.479Z,25.17
2023-02-18T18:48:01.285Z,25.16
2023-02-18T18:50:28.158Z,25.07
2023-02-18T18:52:55.950Z,25.10
2023-02-18T18:55:36.856Z,25.06
2023-02-18T18:58:04.012Z,24.90
2023-02-18T19:00:35.814Z,24.77
2023-02-18T19:03:04.281Z,24.53
2023-02-18T19:05:37.235Z,24.92
2023-02-18T19:08:04.141Z,25.13
2023-02-18T19:10:43.761Z,24.92
2023-02-18T19:13:15.122Z,24.80
2023-02-18T19:15:41.944Z,24.82
2023-02-18T19:18:13.200Z,24.66
2023-02-18T19:20:41.434Z,25.06
2023-02-18T19:23:09.798Z,24.94
2023-02-18T19:25:37.760Z,24.64
2023-02-18T19:28:06.867Z,24.91
2023-02-18T19:30:36.751Z,24.98
2023-02-18T19:33:07.712Z,24.73
2023-02-18T19:35:35.347Z,24.71
2023-02-18T19:38:02.972Z,24.65
2023-02-18T19:40:31.022Z,25.07
2023-02-18T19:42:58.086Z,24.97
2023-02-18T19:45:25.078Z,25.02
2023-02-18T19:48:01.005Z,25.12
2023-02-18T19:50:31.538Z,24.95
2023-02-18T19:52:59.237Z,25.05
2023-02-18T19:55:26.289Z,25.13
2023-02-18T19:57:53.607Z,25.18
2023-02-18T20:00:21.635Z,25.22
2023-02-18T20:02:50.211Z,25.07
2023-02-18T20:05:17.767Z,24.99
2023-02-18T20:07:46.823Z,24.97
2023-02-18T20:10:17.382Z,24.81
2023-02-18T20:12:45.751Z,25.19
2023-02-18T20:15:12.798Z,25.11
2023-02-18T20:17:39.848Z,24.80
2023-02-18T20:20:10.837Z,24.86
2023-02-18T20:22:39.369Z,24.84
2023-02-18T20:25:07.296Z,24.96
2023-02-18T20:27:34.374Z,24.84
2023-02-18T20:30:01.734Z,25.06
2023-02-18T20:32:29.405Z,24.93
2023-02-18T20:34:57.295Z,24.83
2023-02-18T20:37:26.592Z,25.14
2023-02-18T20:39:53.924Z,25.02
2023-02-18T20:42:37.918Z,25.07
2023-02-18T20:45:22.086Z,24.86
2023-02-18T20:47:50.057Z,24.97
2023-02-18T20:50:17.273Z,24.88
2023-02-18T20:52:44.260Z,24.96
2023-02-18T20:55:11.725Z,24.90
2023-02-18T20:57:39.723Z,25.18
2023-02-18T21:00:07.781Z,24.68
2023-02-18T21:02:35.043Z,25.00
2023-02-18T21:05:02.067Z,25.07
2023-02-18T21:07:29.651Z,25.00
2023-02-18T21:09:56.702Z,24.70
2023-02-18T21:12:23.696Z,24.78
2023-02-18T21:14:51.365Z,24.92
2023-02-18T21:17:19.924Z,24.69
2023-02-18T21:19:46.992Z,25.07
2023-02-18T21:22:13.992Z,24.97
2023-02-18T21:24:41.679Z,24.61
2023-02-18T21:27:08.666Z,24.98
2023-02-18T21:29:35.819Z,25.10
2023-02-18T21:32:03.155Z,24.57
2023-02-18T21:34:30.259Z,24.98
2023-02-18T21:36:57.398Z,24.78
2023-02-18T21:39:24.486Z,24.69
2023-02-18T21:41:54.327Z,24.92
2023-02-18T21:44:32.882Z,24.96
2023-02-18T21:47:07.436Z,25.10
2023-02-18T21:49:34.812Z,24.86
2023-02-18T21:52:10.572Z,25.13
2023-02-18T21:54:45.348Z,24.82
2023-02-18T21:57:17.278Z,24.93
2023-02-18T21:59:45.711Z,24.86
2023-02-18T22:02:33.488Z,25.12
2023-02-18T22:05:09.788Z,25.09
2023-02-18T22:07:37.708Z,25.03
2023-02-18T22:10:04.717Z,25.01
2023-02-18T22:12:32.780Z,24.95
2023-02-18T22:14:59.572Z,24.87
2023-02-18T22:17:29.616Z,24.86
2023-02-18T22:19:56.388Z,24.89
2023-02-18T22:22:23.144Z,25.02
2023-02-18T22:24:52.545Z,24.60
2023-02-18T22:27:19.524Z,24.91
2023-02-18T22:29:47.332Z,24.64
